sensor_id;sensor_type;location;lat;lon;timestamp;P1;durP1;ratioP1;P2;durP2;ratioP2
26335;SDS011;14047;50.936;4.654;2023-09-18T00:00:01;10.25;;;6.30;;
26335;SDS011;14047;50.936;4.654;2023-09-18T00:02:33;9.52;;;6.40;;
26335;SDS011;14047;50.936;4.654;2023-09-18T00:04:59;14.95;;;7.03;;
26335;SDS011;14047;50.936;4.654;2023-09-18T00:07:25;10.90;;;6.82;;
26335;SDS011;14047;50.936;4.654;2023-09-18T00:09:51;10.40;;;6.10;;
26335;SDS011;14047;50.936;4.654;2023-09-18T00:12:18;9.57;;;5.65;;
26335;SDS011;14047;50.936;4.654;2023-09-18T00:14:43;8.52;;;5.80;;
26335;SDS011;14047;50.936;4.654;2023-09-18T00:17:14;8.95;;;6.28;;
26335;SDS011;14047;50.936;4.654;2023-09-18T00:19:42;13.10;;;7.43;;
26335;SDS011;14047;50.936;4.654;2023-09-18T00:22:08;15.43;;;7.30;;
26335;SDS011;14047;50.936;4.654;2023-09-18T00:24:34;11.45;;;6.65;;
26335;SDS011;14047;50.936;4.654;2023-09-18T00:27:00;12.43;;;6.63;;
26335;SDS011;14047;50.936;4.654;2023-09-18T00:29:26;9.10;;;6.53;;
26335;SDS011;14047;50.936;4.654;2023-09-18T00:31:52;17.77;;;5.95;;
26335;SDS011;14047;50.936;4.654;2023-09-18T00:34:18;10.70;;;6.50;;
26335;SDS011;14047;50.936;4.654;2023-09-18T00:36:44;14.05;;;6.05;;
26335;SDS011;14047;50.936;4.654;2023-09-18T00:39:09;9.23;;;6.18;;
26335;SDS011;14047;50.936;4.654;2023-09-18T00:41:36;13.15;;;6.38;;
26335;SDS011;14047;50.936;4.654;2023-09-18T00:44:02;20.15;;;6.70;;
26335;SDS011;14047;50.936;4.654;2023-09-18T00:46:28;9.07;;;6.47;;
26335;SDS011;14047;50.936;4.654;2023-09-18T00:48:54;9.80;;;6.82;;
26335;SDS011;14047;50.936;4.654;2023-09-18T00:51:20;11.95;;;7.22;;
26335;SDS011;14047;50.936;4.654;2023-09-18T00:53:46;11.32;;;6.47;;
26335;SDS011;14047;50.936;4.654;2023-09-18T00:56:14;8.55;;;6.55;;
26335;SDS011;14047;50.936;4.654;2023-09-18T00:58:41;10.35;;;6.40;;
26335;SDS011;14047;50.936;4.654;2023-09-18T01:01:08;12.75;;;6.20;;
26335;SDS011;14047;50.936;4.654;2023-09-18T01:03:36;11.30;;;6.93;;
26335;SDS011;14047;50.936;4.654;2023-09-18T01:06:02;14.07;;;6.85;;
26335;SDS011;14047;50.936;4.654;2023-09-18T01:08:28;9.70;;;6.80;;
26335;SDS011;14047;50.936;4.654;2023-09-18T01:13:34;10.80;;;6.05;;
26335;SDS011;14047;50.936;4.654;2023-09-18T01:16:08;8.13;;;6.20;;
26335;SDS011;14047;50.936;4.654;2023-09-18T01:18:49;9.88;;;5.97;;
26335;SDS011;14047;50.936;4.654;2023-09-18T01:21:16;13.80;;;6.25;;
26335;SDS011;14047;50.936;4.654;2023-09-18T01:23:44;15.30;;;6.40;;
26335;SDS011;14047;50.936;4.654;2023-09-18T01:26:09;10.43;;;6.28;;
26335;SDS011;14047;50.936;4.654;2023-09-18T01:28:35;14.10;;;6.57;;
26335;SDS011;14047;50.936;4.654;2023-09-18T01:31:01;11.80;;;6.80;;
26335;SDS011;14047;50.936;4.654;2023-09-18T01:33:28;11.15;;;6.43;;
26335;SDS011;14047;50.936;4.654;2023-09-18T01:35:55;9.30;;;6.65;;
26335;SDS011;14047;50.936;4.654;2023-09-18T01:38:22;21.60;;;6.22;;
26335;SDS011;14047;50.936;4.654;2023-09-18T01:40:50;11.95;;;5.80;;
26335;SDS011;14047;50.936;4.654;2023-09-18T01:43:18;10.23;;;6.25;;
26335;SDS011;14047;50.936;4.654;2023-09-18T01:45:45;13.48;;;5.80;;
26335;SDS011;14047;50.936;4.654;2023-09-18T01:48:11;9.75;;;6.03;;
26335;SDS011;14047;50.936;4.654;2023-09-18T01:50:37;8.27;;;5.93;;
26335;SDS011;14047;50.936;4.654;2023-09-18T01:53:05;14.52;;;6.30;;
26335;SDS011;14047;50.936;4.654;2023-09-18T01:55:31;9.55;;;6.18;;
26335;SDS011;14047;50.936;4.654;2023-09-18T01:57:58;8.95;;;6.10;;
26335;SDS011;14047;50.936;4.654;2023-09-18T02:00:24;8.90;;;5.90;;
26335;SDS011;14047;50.936;4.654;2023-09-18T02:02:52;9.30;;;6.32;;
26335;SDS011;14047;50.936;4.654;2023-09-18T02:05:18;11.55;;;6.75;;
26335;SDS011;14047;50.936;4.654;2023-09-18T02:07:44;9.48;;;6.70;;
26335;SDS011;14047;50.936;4.654;2023-09-18T02:10:10;13.77;;;7.85;;
26335;SDS011;14047;50.936;4.654;2023-09-18T02:12:38;10.82;;;6.25;;
26335;SDS011;14047;50.936;4.654;2023-09-18T02:15:05;10.80;;;7.03;;
26335;SDS011;14047;50.936;4.654;2023-09-18T02:17:32;12.82;;;6.45;;
26335;SDS011;14047;50.936;4.654;2023-09-18T02:19:58;18.33;;;8.52;;
26335;SDS011;14047;50.936;4.654;2023-09-18T02:22:31;10.45;;;6.60;;
26335;SDS011;14047;50.936;4.654;2023-09-18T02:24:57;10.23;;;6.75;;
26335;SDS011;14047;50.936;4.654;2023-09-18T02:27:23;12.15;;;6.85;;
26335;SDS011;14047;50.936;4.654;2023-09-18T02:29:50;13.85;;;6.97;;
26335;SDS011;14047;50.936;4.654;2023-09-18T02:32:18;11.00;;;6.45;;
26335;SDS011;14047;50.936;4.654;2023-09-18T02:34:44;15.63;;;6.78;;
26335;SDS011;14047;50.936;4.654;2023-09-18T02:37:10;13.70;;;7.07;;
26335;SDS011;14047;50.936;4.654;2023-09-18T02:39:36;16.13;;;6.82;;
26335;SDS011;14047;50.936;4.654;2023-09-18T02:42:02;10.48;;;6.68;;
26335;SDS011;14047;50.936;4.654;2023-09-18T02:44:28;16.83;;;6.88;;
26335;SDS011;14047;50.936;4.654;2023-09-18T02:46:54;12.85;;;6.57;;
26335;SDS011;14047;50.936;4.654;2023-09-18T02:49:20;13.38;;;6.63;;
26335;SDS011;14047;50.936;4.654;2023-09-18T02:51:46;12.70;;;6.47;;
26335;SDS011;14047;50.936;4.654;2023-09-18T02:54:12;10.10;;;6.57;;
26335;SDS011;14047;50.936;4.654;2023-09-18T02:56:38;12.45;;;6.25;;
26335;SDS011;14047;50.936;4.654;2023-09-18T02:59:04;12.43;;;6.30;;
26335;SDS011;14047;50.936;4.654;2023-09-18T03:01:30;10.00;;;6.45;;
26335;SDS011;14047;50.936;4.654;2023-09-18T03:03:56;13.38;;;6.40;;
26335;SDS011;14047;50.936;4.654;2023-09-18T03:06:22;12.55;;;6.18;;
26335;SDS011;14047;50.936;4.654;2023-09-18T03:08:48;9.73;;;6.97;;
26335;SDS011;14047;50.936;4.654;2023-09-18T03:11:16;12.27;;;6.45;;
26335;SDS011;14047;50.936;4.654;2023-09-18T03:13:44;10.48;;;7.13;;
26335;SDS011;14047;50.936;4.654;2023-09-18T03:16:12;10.27;;;6.43;;
26335;SDS011;14047;50.936;4.654;2023-09-18T03:18:39;11.35;;;6.40;;
26335;SDS011;14047;50.936;4.654;2023-09-18T03:21:05;11.02;;;6.05;;
26335;SDS011;14047;50.936;4.654;2023-09-18T03:23:31;16.70;;;5.88;;
26335;SDS011;14047;50.936;4.654;2023-09-18T03:25:57;10.73;;;5.32;;
26335;SDS011;14047;50.936;4.654;2023-09-18T03:28:25;22.02;;;5.05;;
26335;SDS011;14047;50.936;4.654;2023-09-18T03:30:52;8.63;;;4.80;;
26335;SDS011;14047;50.936;4.654;2023-09-18T03:33:21;9.48;;;5.25;;
26335;SDS011;14047;50.936;4.654;2023-09-18T03:35:48;7.28;;;4.50;;
26335;SDS011;14047;50.936;4.654;2023-09-18T03:38:17;10.45;;;4.15;;
26335;SDS011;14047;50.936;4.654;2023-09-18T03:40:43;4.60;;;4.05;;
26335;SDS011;14047;50.936;4.654;2023-09-18T03:43:10;5.13;;;3.85;;
26335;SDS011;14047;50.936;4.654;2023-09-18T03:45:37;7.53;;;4.00;;
26335;SDS011;14047;50.936;4.654;2023-09-18T03:48:06;7.28;;;3.60;;
26335;SDS011;14047;50.936;4.654;2023-09-18T03:50:32;7.13;;;3.28;;
26335;SDS011;14047;50.936;4.654;2023-09-18T03:52:58;5.97;;;2.90;;
26335;SDS011;14047;50.936;4.654;2023-09-18T03:55:24;8.25;;;3.40;;
26335;SDS011;14047;50.936;4.654;2023-09-18T03:57:52;5.63;;;2.95;;
26335;SDS011;14047;50.936;4.654;2023-09-18T04:00:18;6.57;;;2.90;;
26335;SDS011;14047;50.936;4.654;2023-09-18T04:02:44;9.20;;;2.80;;
26335;SDS011;14047;50.936;4.654;2023-09-18T04:05:11;7.10;;;2.33;;
26335;SDS011;14047;50.936;4.654;2023-09-18T04:07:36;5.13;;;2.25;;
26335;SDS011;14047;50.936;4.654;2023-09-18T04:10:02;4.88;;;2.70;;
26335;SDS011;14047;50.936;4.654;2023-09-18T04:12:31;4.93;;;2.38;;
26335;SDS011;14047;50.936;4.654;2023-09-18T04:14:57;3.47;;;2.33;;
26335;SDS011;14047;50.936;4.654;2023-09-18T04:17:23;8.23;;;2.10;;
26335;SDS011;14047;50.936;4.654;2023-09-18T04:19:50;4.38;;;2.00;;
26335;SDS011;14047;50.936;4.654;2023-09-18T04:22:15;4.50;;;2.10;;
26335;SDS011;14047;50.936;4.654;2023-09-18T04:24:41;3.60;;;1.83;;
26335;SDS011;14047;50.936;4.654;2023-09-18T04:27:08;4.53;;;2.25;;
26335;SDS011;14047;50.936;4.654;2023-09-18T04:29:35;3.47;;;1.90;;
26335;SDS011;14047;50.936;4.654;2023-09-18T04:32:01;5.03;;;1.80;;
26335;SDS011;14047;50.936;4.654;2023-09-18T04:34:29;3.80;;;1.48;;
26335;SDS011;14047;50.936;4.654;2023-09-18T04:36:55;3.58;;;1.63;;
26335;SDS011;14047;50.936;4.654;2023-09-18T04:39:21;3.67;;;1.52;;
26335;SDS011;14047;50.936;4.654;2023-09-18T04:41:48;6.95;;;1.60;;
26335;SDS011;14047;50.936;4.654;2023-09-18T04:44:14;5.32;;;1.65;;
26335;SDS011;14047;50.936;4.654;2023-09-18T04:46:40;3.13;;;1.80;;
26335;SDS011;14047;50.936;4.654;2023-09-18T04:49:09;2.85;;;1.67;;
26335;SDS011;14047;50.936;4.654;2023-09-18T04:51:37;4.70;;;1.40;;
26335;SDS011;14047;50.936;4.654;2023-09-18T04:54:04;5.97;;;1.40;;
26335;SDS011;14047;50.936;4.654;2023-09-18T04:56:31;3.78;;;1.38;;
26335;SDS011;14047;50.936;4.654;2023-09-18T04:58:57;3.83;;;1.75;;
26335;SDS011;14047;50.936;4.654;2023-09-18T05:01:23;2.53;;;1.88;;
26335;SDS011;14047;50.936;4.654;2023-09-18T05:03:50;4.85;;;1.30;;
26335;SDS011;14047;50.936;4.654;2023-09-18T05:06:16;4.30;;;1.70;;
26335;SDS011;14047;50.936;4.654;2023-09-18T05:08:43;4.82;;;1.80;;
26335;SDS011;14047;50.936;4.654;2023-09-18T05:11:10;7.60;;;1.80;;
26335;SDS011;14047;50.936;4.654;2023-09-18T05:13:36;2.28;;;1.33;;
26335;SDS011;14047;50.936;4.654;2023-09-18T05:16:02;3.95;;;1.77;;
26335;SDS011;14047;50.936;4.654;2023-09-18T05:18:29;4.05;;;1.40;;
26335;SDS011;14047;50.936;4.654;2023-09-18T05:20:55;4.68;;;1.38;;
26335;SDS011;14047;50.936;4.654;2023-09-18T05:23:21;4.70;;;1.40;;
26335;SDS011;14047;50.936;4.654;2023-09-18T05:25:47;2.15;;;1.33;;
26335;SDS011;14047;50.936;4.654;2023-09-18T05:28:13;4.57;;;1.77;;
26335;SDS011;14047;50.936;4.654;2023-09-18T05:30:39;7.68;;;2.20;;
26335;SDS011;14047;50.936;4.654;2023-09-18T05:33:06;3.28;;;1.63;;
26335;SDS011;14047;50.936;4.654;2023-09-18T05:38:06;5.68;;;1.60;;
26335;SDS011;14047;50.936;4.654;2023-09-18T05:40:32;4.38;;;1.40;;
26335;SDS011;14047;50.936;4.654;2023-09-18T05:42:58;5.35;;;1.42;;
26335;SDS011;14047;50.936;4.654;2023-09-18T05:45:24;3.13;;;1.65;;
26335;SDS011;14047;50.936;4.654;2023-09-18T05:47:52;5.50;;;1.60;;
26335;SDS011;14047;50.936;4.654;2023-09-18T05:50:19;4.53;;;1.33;;
26335;SDS011;14047;50.936;4.654;2023-09-18T05:52:45;5.32;;;1.65;;
26335;SDS011;14047;50.936;4.654;2023-09-18T05:55:16;6.00;;;1.30;;
26335;SDS011;14047;50.936;4.654;2023-09-18T05:57:42;5.55;;;1.70;;
26335;SDS011;14047;50.936;4.654;2023-09-18T06:00:08;7.15;;;1.42;;
26335;SDS011;14047;50.936;4.654;2023-09-18T06:02:39;3.45;;;1.17;;
26335;SDS011;14047;50.936;4.654;2023-09-18T06:05:05;1.33;;;1.23;;
26335;SDS011;14047;50.936;4.654;2023-09-18T06:07:31;5.05;;;1.30;;
26335;SDS011;14047;50.936;4.654;2023-09-18T06:09:58;3.45;;;1.45;;
26335;SDS011;14047;50.936;4.654;2023-09-18T06:12:24;3.10;;;1.55;;
26335;SDS011;14047;50.936;4.654;2023-09-18T06:14:51;6.88;;;1.70;;
26335;SDS011;14047;50.936;4.654;2023-09-18T06:17:17;4.88;;;1.52;;
26335;SDS011;14047;50.936;4.654;2023-09-18T06:19:44;5.75;;;1.33;;
26335;SDS011;14047;50.936;4.654;2023-09-18T06:22:11;9.48;;;1.55;;
26335;SDS011;14047;50.936;4.654;2023-09-18T06:24:37;5.68;;;1.77;;
26335;SDS011;14047;50.936;4.654;2023-09-18T06:27:04;1.50;;;1.23;;
26335;SDS011;14047;50.936;4.654;2023-09-18T06:29:30;3.15;;;1.25;;
26335;SDS011;14047;50.936;4.654;2023-09-18T06:32:00;2.58;;;1.20;;
26335;SDS011;14047;50.936;4.654;2023-09-18T06:34:26;4.95;;;1.65;;
26335;SDS011;14047;50.936;4.654;2023-09-18T06:36:53;3.05;;;1.40;;
26335;SDS011;14047;50.936;4.654;2023-09-18T06:39:19;3.90;;;1.50;;
26335;SDS011;14047;50.936;4.654;2023-09-18T06:41:47;4.70;;;1.60;;
26335;SDS011;14047;50.936;4.654;2023-09-18T06:44:13;4.03;;;1.42;;
26335;SDS011;14047;50.936;4.654;2023-09-18T06:46:39;3.38;;;1.30;;
26335;SDS011;14047;50.936;4.654;2023-09-18T06:49:05;4.03;;;1.23;;
26335;SDS011;14047;50.936;4.654;2023-09-18T06:51:31;4.55;;;1.38;;
26335;SDS011;14047;50.936;4.654;2023-09-18T06:53:57;3.47;;;1.52;;
26335;SDS011;14047;50.936;4.654;2023-09-18T06:56:24;3.67;;;1.30;;
26335;SDS011;14047;50.936;4.654;2023-09-18T06:58:50;6.50;;;1.48;;
26335;SDS011;14047;50.936;4.654;2023-09-18T07:01:20;4.30;;;1.48;;
26335;SDS011;14047;50.936;4.654;2023-09-18T07:03:47;3.33;;;1.27;;
26335;SDS011;14047;50.936;4.654;2023-09-18T07:06:13;4.75;;;1.40;;
26335;SDS011;14047;50.936;4.654;2023-09-18T07:08:49;3.47;;;1.40;;
26335;SDS011;14047;50.936;4.654;2023-09-18T07:11:15;5.45;;;1.60;;
26335;SDS011;14047;50.936;4.654;2023-09-18T07:13:42;4.20;;;1.58;;
26335;SDS011;14047;50.936;4.654;2023-09-18T07:16:09;3.95;;;1.58;;
26335;SDS011;14047;50.936;4.654;2023-09-18T07:18:36;3.58;;;1.30;;
26335;SDS011;14047;50.936;4.654;2023-09-18T07:21:02;4.35;;;1.67;;
26335;SDS011;14047;50.936;4.654;2023-09-18T07:23:28;3.63;;;1.70;;
26335;SDS011;14047;50.936;4.654;2023-09-18T07:25:54;5.22;;;2.05;;
26335;SDS011;14047;50.936;4.654;2023-09-18T07:28:20;2.50;;;1.60;;
26335;SDS011;14047;50.936;4.654;2023-09-18T07:30:48;3.92;;;1.95;;
26335;SDS011;14047;50.936;4.654;2023-09-18T07:33:15;2.25;;;1.30;;
26335;SDS011;14047;50.936;4.654;2023-09-18T07:35:44;2.90;;;2.15;;
26335;SDS011;14047;50.936;4.654;2023-09-18T07:38:14;2.38;;;1.60;;
26335;SDS011;14047;50.936;4.654;2023-09-18T07:40:40;4.85;;;1.80;;
26335;SDS011;14047;50.936;4.654;2023-09-18T07:43:06;4.65;;;1.90;;
26335;SDS011;14047;50.936;4.654;2023-09-18T07:45:33;3.00;;;1.80;;
26335;SDS011;14047;50.936;4.654;2023-09-18T07:47:59;4.10;;;1.92;;
26335;SDS011;14047;50.936;4.654;2023-09-18T07:50:25;4.22;;;2.00;;
26335;SDS011;14047;50.936;4.654;2023-09-18T07:52:52;5.75;;;2.22;;
26335;SDS011;14047;50.936;4.654;2023-09-18T07:55:18;8.57;;;2.10;;
26335;SDS011;14047;50.936;4.654;2023-09-18T07:57:44;3.28;;;1.75;;
26335;SDS011;14047;50.936;4.654;2023-09-18T08:00:11;3.17;;;1.60;;
26335;SDS011;14047;50.936;4.654;2023-09-18T08:02:39;2.83;;;1.70;;
26335;SDS011;14047;50.936;4.654;2023-09-18T08:05:05;3.90;;;1.88;;
26335;SDS011;14047;50.936;4.654;2023-09-18T08:07:32;6.13;;;1.85;;
26335;SDS011;14047;50.936;4.654;2023-09-18T08:09:58;5.10;;;1.65;;
26335;SDS011;14047;50.936;4.654;2023-09-18T08:12:24;4.07;;;1.70;;
26335;SDS011;14047;50.936;4.654;2023-09-18T08:14:50;6.20;;;1.90;;
26335;SDS011;14047;50.936;4.654;2023-09-18T08:17:16;4.18;;;2.20;;
26335;SDS011;14047;50.936;4.654;2023-09-18T08:19:43;3.67;;;1.80;;
26335;SDS011;14047;50.936;4.654;2023-09-18T08:22:09;5.85;;;1.90;;
26335;SDS011;14047;50.936;4.654;2023-09-18T08:24:40;6.18;;;2.35;;
26335;SDS011;14047;50.936;4.654;2023-09-18T08:27:06;3.35;;;1.80;;
26335;SDS011;14047;50.936;4.654;2023-09-18T08:29:32;5.20;;;1.90;;
26335;SDS011;14047;50.936;4.654;2023-09-18T08:31:58;8.60;;;2.30;;
26335;SDS011;14047;50.936;4.654;2023-09-18T08:34:24;7.30;;;2.17;;
26335;SDS011;14047;50.936;4.654;2023-09-18T08:36:50;4.93;;;1.50;;
26335;SDS011;14047;50.936;4.654;2023-09-18T08:39:16;4.63;;;1.80;;
26335;SDS011;14047;50.936;4.654;2023-09-18T08:41:43;5.07;;;2.00;;
26335;SDS011;14047;50.936;4.654;2023-09-18T08:44:10;6.05;;;1.58;;
26335;SDS011;14047;50.936;4.654;2023-09-18T08:46:37;4.93;;;1.90;;
26335;SDS011;14047;50.936;4.654;2023-09-18T08:49:04;3.03;;;1.88;;
26335;SDS011;14047;50.936;4.654;2023-09-18T08:51:30;4.35;;;2.00;;
26335;SDS011;14047;50.936;4.654;2023-09-18T08:53:58;3.83;;;1.80;;
26335;SDS011;14047;50.936;4.654;2023-09-18T08:56:24;5.10;;;1.85;;
26335;SDS011;14047;50.936;4.654;2023-09-18T08:58:53;4.60;;;1.92;;
26335;SDS011;14047;50.936;4.654;2023-09-18T09:01:19;6.68;;;1.88;;
26335;SDS011;14047;50.936;4.654;2023-09-18T09:03:46;8.70;;;2.25;;
26335;SDS011;14047;50.936;4.654;2023-09-18T09:06:12;4.75;;;1.75;;
26335;SDS011;14047;50.936;4.654;2023-09-18T09:08:38;4.90;;;1.85;;
26335;SDS011;14047;50.936;4.654;2023-09-18T09:11:04;4.30;;;1.90;;
26335;SDS011;14047;50.936;4.654;2023-09-18T09:13:31;5.28;;;2.05;;
26335;SDS011;14047;50.936;4.654;2023-09-18T09:15:57;5.72;;;1.80;;
26335;SDS011;14047;50.936;4.654;2023-09-18T09:18:25;5.05;;;2.22;;
26335;SDS011;14047;50.936;4.654;2023-09-18T09:20:54;3.20;;;1.77;;
26335;SDS011;14047;50.936;4.654;2023-09-18T09:23:23;6.20;;;1.80;;
26335;SDS011;14047;50.936;4.654;2023-09-18T09:25:54;6.68;;;1.90;;
26335;SDS011;14047;50.936;4.654;2023-09-18T09:28:37;9.60;;;1.92;;
26335;SDS011;14047;50.936;4.654;2023-09-18T09:31:03;4.43;;;1.90;;
26335;SDS011;14047;50.936;4.654;2023-09-18T09:33:29;2.58;;;1.90;;
26335;SDS011;14047;50.936;4.654;2023-09-18T09:35:56;7.55;;;2.00;;
26335;SDS011;14047;50.936;4.654;2023-09-18T09:38:29;6.20;;;2.22;;
26335;SDS011;14047;50.936;4.654;2023-09-18T09:40:57;4.75;;;1.73;;
26335;SDS011;14047;50.936;4.654;2023-09-18T09:43:27;5.85;;;2.53;;
26335;SDS011;14047;50.936;4.654;2023-09-18T09:45:57;3.90;;;2.20;;
26335;SDS011;14047;50.936;4.654;2023-09-18T09:48:24;6.40;;;2.30;;
26335;SDS011;14047;50.936;4.654;2023-09-18T09:50:50;7.25;;;2.40;;
26335;SDS011;14047;50.936;4.654;2023-09-18T09:53:18;6.05;;;2.70;;
26335;SDS011;14047;50.936;4.654;2023-09-18T09:55:44;4.18;;;2.53;;
26335;SDS011;14047;50.936;4.654;2023-09-18T09:58:11;5.50;;;2.20;;
26335;SDS011;14047;50.936;4.654;2023-09-18T10:03:14;7.88;;;3.17;;
26335;SDS011;14047;50.936;4.654;2023-09-18T10:05:45;6.00;;;2.20;;
26335;SDS011;14047;50.936;4.654;2023-09-18T10:08:22;9.95;;;2.83;;
26335;SDS011;14047;50.936;4.654;2023-09-18T10:10:54;9.20;;;2.55;;
26335;SDS011;14047;50.936;4.654;2023-09-18T10:13:23;4.15;;;2.10;;
26335;SDS011;14047;50.936;4.654;2023-09-18T10:16:04;10.25;;;2.22;;
26335;SDS011;14047;50.936;4.654;2023-09-18T10:21:26;7.38;;;2.30;;
26335;SDS011;14047;50.936;4.654;2023-09-18T10:26:41;5.93;;;2.05;;
26335;SDS011;14047;50.936;4.654;2023-09-18T10:29:23;5.70;;;1.90;;
26335;SDS011;14047;50.936;4.654;2023-09-18T10:31:53;5.55;;;2.38;;
26335;SDS011;14047;50.936;4.654;2023-09-18T10:34:20;4.70;;;2.22;;
26335;SDS011;14047;50.936;4.654;2023-09-18T10:36:48;5.38;;;1.88;;
26335;SDS011;14047;50.936;4.654;2023-09-18T10:39:14;4.53;;;2.13;;
26335;SDS011;14047;50.936;4.654;2023-09-18T10:41:48;4.45;;;1.65;;
26335;SDS011;14047;50.936;4.654;2023-09-18T10:44:18;7.25;;;2.00;;
26335;SDS011;14047;50.936;4.654;2023-09-18T10:46:48;5.25;;;2.28;;
26335;SDS011;14047;50.936;4.654;2023-09-18T10:49:15;4.55;;;2.17;;
26335;SDS011;14047;50.936;4.654;2023-09-18T10:51:41;4.65;;;2.33;;
26335;SDS011;14047;50.936;4.654;2023-09-18T10:54:09;3.80;;;2.50;;
26335;SDS011;14047;50.936;4.654;2023-09-18T10:56:35;5.00;;;2.08;;
26335;SDS011;14047;50.936;4.654;2023-09-18T10:59:02;4.28;;;1.95;;
26335;SDS011;14047;50.936;4.654;2023-09-18T11:01:33;6.50;;;2.33;;
26335;SDS011;14047;50.936;4.654;2023-09-18T11:04:02;5.65;;;2.05;;
26335;SDS011;14047;50.936;4.654;2023-09-18T11:06:29;6.20;;;2.38;;
26335;SDS011;14047;50.936;4.654;2023-09-18T11:08:59;2.95;;;2.50;;
26335;SDS011;14047;50.936;4.654;2023-09-18T11:11:29;4.57;;;2.42;;
26335;SDS011;14047;50.936;4.654;2023-09-18T11:13:58;8.68;;;2.85;;
26335;SDS011;14047;50.936;4.654;2023-09-18T11:19:04;7.28;;;2.40;;
26335;SDS011;14047;50.936;4.654;2023-09-18T11:21:36;6.07;;;2.30;;
26335;SDS011;14047;50.936;4.654;2023-09-18T11:24:03;4.75;;;2.10;;
26335;SDS011;14047;50.936;4.654;2023-09-18T11:26:31;7.18;;;1.92;;
26335;SDS011;14047;50.936;4.654;2023-09-18T11:29:03;6.07;;;2.30;;
26335;SDS011;14047;50.936;4.654;2023-09-18T11:34:30;5.47;;;1.88;;
26335;SDS011;14047;50.936;4.654;2023-09-18T11:36:59;6.88;;;2.05;;
26335;SDS011;14047;50.936;4.654;2023-09-18T11:39:38;4.68;;;2.08;;
26335;SDS011;14047;50.936;4.654;2023-09-18T11:42:06;9.20;;;1.95;;
26335;SDS011;14047;50.936;4.654;2023-09-18T11:44:37;5.30;;;1.60;;
26335;SDS011;14047;50.936;4.654;2023-09-18T11:47:08;6.78;;;1.90;;
26335;SDS011;14047;50.936;4.654;2023-09-18T11:49:40;3.33;;;2.10;;
26335;SDS011;14047;50.936;4.654;2023-09-18T11:52:12;7.47;;;1.77;;
26335;SDS011;14047;50.936;4.654;2023-09-18T11:54:39;4.95;;;1.90;;
26335;SDS011;14047;50.936;4.654;2023-09-18T11:57:06;5.90;;;1.70;;
26335;SDS011;14047;50.936;4.654;2023-09-18T11:59:33;3.70;;;1.80;;
26335;SDS011;14047;50.936;4.654;2023-09-18T12:02:02;3.10;;;1.80;;
26335;SDS011;14047;50.936;4.654;2023-09-18T12:04:31;4.43;;;2.10;;
26335;SDS011;14047;50.936;4.654;2023-09-18T12:07:01;3.83;;;1.67;;
26335;SDS011;14047;50.936;4.654;2023-09-18T12:09:30;4.85;;;1.83;;
26335;SDS011;14047;50.936;4.654;2023-09-18T12:11:58;3.35;;;1.65;;
26335;SDS011;14047;50.936;4.654;2023-09-18T12:14:32;4.10;;;2.03;;
26335;SDS011;14047;50.936;4.654;2023-09-18T12:16:59;4.32;;;1.70;;
26335;SDS011;14047;50.936;4.654;2023-09-18T12:19:26;5.82;;;2.00;;
26335;SDS011;14047;50.936;4.654;2023-09-18T12:21:52;4.60;;;2.00;;
26335;SDS011;14047;50.936;4.654;2023-09-18T12:24:22;4.55;;;1.95;;
26335;SDS011;14047;50.936;4.654;2023-09-18T12:26:49;3.25;;;1.65;;
26335;SDS011;14047;50.936;4.654;2023-09-18T12:29:16;2.22;;;1.70;;
26335;SDS011;14047;50.936;4.654;2023-09-18T12:31:42;2.97;;;1.88;;
26335;SDS011;14047;50.936;4.654;2023-09-18T12:34:28;4.03;;;1.85;;
26335;SDS011;14047;50.936;4.654;2023-09-18T12:36:54;3.58;;;1.50;;
26335;SDS011;14047;50.936;4.654;2023-09-18T12:39:21;3.85;;;1.52;;
26335;SDS011;14047;50.936;4.654;2023-09-18T12:41:47;3.70;;;1.50;;
26335;SDS011;14047;50.936;4.654;2023-09-18T12:44:13;5.50;;;1.30;;
26335;SDS011;14047;50.936;4.654;2023-09-18T12:46:42;4.50;;;1.60;;
26335;SDS011;14047;50.936;4.654;2023-09-18T12:49:16;3.33;;;1.60;;
26335;SDS011;14047;50.936;4.654;2023-09-18T12:51:42;5.95;;;1.55;;
26335;SDS011;14047;50.936;4.654;2023-09-18T12:54:09;4.30;;;1.23;;
26335;SDS011;14047;50.936;4.654;2023-09-18T12:56:40;4.13;;;1.55;;
26335;SDS011;14047;50.936;4.654;2023-09-18T12:59:07;7.05;;;1.88;;
26335;SDS011;14047;50.936;4.654;2023-09-18T13:01:32;3.53;;;1.92;;
26335;SDS011;14047;50.936;4.654;2023-09-18T13:03:58;6.47;;;1.58;;
26335;SDS011;14047;50.936;4.654;2023-09-18T13:06:30;5.18;;;1.55;;
26335;SDS011;14047;50.936;4.654;2023-09-18T13:09:14;3.25;;;1.38;;
26335;SDS011;14047;50.936;4.654;2023-09-18T13:11:57;4.50;;;1.80;;
26335;SDS011;14047;50.936;4.654;2023-09-18T13:14:26;2.80;;;1.67;;
26335;SDS011;14047;50.936;4.654;2023-09-18T13:16:52;3.42;;;1.27;;
26335;SDS011;14047;50.936;4.654;2023-09-18T13:19:19;2.75;;;1.50;;
26335;SDS011;14047;50.936;4.654;2023-09-18T13:21:48;3.47;;;1.30;;
26335;SDS011;14047;50.936;4.654;2023-09-18T13:24:28;2.85;;;1.58;;
26335;SDS011;14047;50.936;4.654;2023-09-18T13:26:55;3.17;;;1.42;;
26335;SDS011;14047;50.936;4.654;2023-09-18T13:29:23;2.70;;;1.50;;
26335;SDS011;14047;50.936;4.654;2023-09-18T13:31:49;5.07;;;1.67;;
26335;SDS011;14047;50.936;4.654;2023-09-18T13:34:16;3.35;;;1.60;;
26335;SDS011;14047;50.936;4.654;2023-09-18T13:36:44;4.13;;;1.60;;
26335;SDS011;14047;50.936;4.654;2023-09-18T13:39:13;3.97;;;1.80;;
26335;SDS011;14047;50.936;4.654;2023-09-18T13:41:42;4.22;;;1.80;;
26335;SDS011;14047;50.936;4.654;2023-09-18T13:44:08;4.18;;;1.40;;
26335;SDS011;14047;50.936;4.654;2023-09-18T13:46:35;4.40;;;1.83;;
26335;SDS011;14047;50.936;4.654;2023-09-18T13:49:03;4.05;;;1.45;;
26335;SDS011;14047;50.936;4.654;2023-09-18T13:51:30;6.35;;;1.65;;
26335;SDS011;14047;50.936;4.654;2023-09-18T13:53:57;3.25;;;1.25;;
26335;SDS011;14047;50.936;4.654;2023-09-18T13:56:23;2.35;;;1.33;;
26335;SDS011;14047;50.936;4.654;2023-09-18T13:58:54;4.65;;;1.52;;
26335;SDS011;14047;50.936;4.654;2023-09-18T14:01:21;1.55;;;1.30;;
26335;SDS011;14047;50.936;4.654;2023-09-18T14:03:52;4.38;;;1.90;;
26335;SDS011;14047;50.936;4.654;2023-09-18T14:06:18;5.55;;;1.92;;
26335;SDS011;14047;50.936;4.654;2023-09-18T14:08:45;5.38;;;1.60;;
26335;SDS011;14047;50.936;4.654;2023-09-18T14:11:10;3.47;;;1.52;;
26335;SDS011;14047;50.936;4.654;2023-09-18T14:13:37;3.08;;;1.50;;
26335;SDS011;14047;50.936;4.654;2023-09-18T14:16:03;3.42;;;1.30;;
26335;SDS011;14047;50.936;4.654;2023-09-18T14:18:29;2.95;;;1.40;;
26335;SDS011;14047;50.936;4.654;2023-09-18T14:20:55;5.45;;;1.40;;
26335;SDS011;14047;50.936;4.654;2023-09-18T14:23:21;5.43;;;1.55;;
26335;SDS011;14047;50.936;4.654;2023-09-18T14:25:47;4.63;;;1.38;;
26335;SDS011;14047;50.936;4.654;2023-09-18T14:28:13;3.33;;;1.30;;
26335;SDS011;14047;50.936;4.654;2023-09-18T14:30:39;3.42;;;1.58;;
26335;SDS011;14047;50.936;4.654;2023-09-18T14:33:05;3.00;;;1.40;;
26335;SDS011;14047;50.936;4.654;2023-09-18T14:35:33;13.80;;;1.75;;
26335;SDS011;14047;50.936;4.654;2023-09-18T14:38:01;5.82;;;1.40;;
26335;SDS011;14047;50.936;4.654;2023-09-18T14:40:29;4.82;;;1.30;;
26335;SDS011;14047;50.936;4.654;2023-09-18T14:42:55;4.18;;;1.17;;
26335;SDS011;14047;50.936;4.654;2023-09-18T14:45:21;6.68;;;1.65;;
26335;SDS011;14047;50.936;4.654;2023-09-18T14:47:47;2.47;;;1.25;;
26335;SDS011;14047;50.936;4.654;2023-09-18T14:50:13;3.22;;;1.52;;
26335;SDS011;14047;50.936;4.654;2023-09-18T14:52:39;6.32;;;1.83;;
26335;SDS011;14047;50.936;4.654;2023-09-18T14:55:06;6.97;;;1.65;;
26335;SDS011;14047;50.936;4.654;2023-09-18T14:57:32;4.15;;;1.40;;
26335;SDS011;14047;50.936;4.654;2023-09-18T14:59:58;6.53;;;2.03;;
26335;SDS011;14047;50.936;4.654;2023-09-18T15:02:24;8.85;;;2.30;;
26335;SDS011;14047;50.936;4.654;2023-09-18T15:04:55;6.30;;;2.67;;